Time;durP1;ratioP1;P1;durP2;ratioP2;P2;SDS_P1;SDS_P2;PMS_P1;PMS_P2;Temp;Humidity;BMP_temperature;BMP_pressure;BME280_temperature;BME280_humidity;BME280_pressure;Samples;Min_cycle;Max_cycle;Signal;HPM_P1;HPM_P2
2022/02/04 00:24:24;;;;;;;0.57;0.32;;;;;;;12.79;100.00;98667.16;5030687;28;20076;-79
2022/02/04 00:27:28;;;;;;;0.43;0.15;;;;;;;12.76;100.00;98676.56;5011493;28;20419;-79
2022/02/04 00:30:37;;;;;;;3.40;0.30;;;;;;;12.79;100.00;98661.59;5027698;28;20056;-79
2022/02/04 00:33:44;;;;;;;5.57;0.30;;;;;;;12.78;100.00;98660.06;5034468;28;20060;-79
2022/02/04 00:39:58;;;;;;;1.30;0.25;;;;;;;12.88;100.00;98650.84;5022064;28;20403;-80
2022/02/04 00:43:05;;;;;;;0.73;0.73;;;;;;;12.92;100.00;98653.34;5034345;28;20060;-79
2022/02/04 00:46:20;;;;;;;0.55;0.38;;;;;;;12.84;100.00;98641.97;5033732;28;20068;-79
2022/02/04 00:53:00;;;;;;;0.47;0.30;;;;;;;12.61;100.00;98656.63;5034215;28;20053;-79
2022/02/04 01:26:23;;;;;;;0.10;0.10;;;;;;;11.16;100.00;98700.25;5014060;28;20053;-80
2022/02/04 01:29:31;;;;;;;0.10;0.10;;;;;;;10.99;100.00;98707.84;5018502;28;20048;-80
2022/02/04 01:32:35;;;;;;;0.10;0.00;;;;;;;10.87;100.00;98711.91;5033620;28;20052;-80
2022/02/04 01:35:38;;;;;;;0.10;0.10;;;;;;;10.64;100.00;98717.44;5033603;28;20052;-80
2022/02/04 01:38:42;;;;;;;0.10;0.00;;;;;;;10.50;100.00;98715.63;5033639;28;20048;-80
2022/02/04 01:41:45;;;;;;;0.10;0.10;;;;;;;10.37;100.00;98725.72;5032009;28;20104;-80
2022/02/04 01:44:51;;;;;;;0.35;0.10;;;;;;;10.26;100.00;98726.47;5044240;28;20068;-80
2022/02/04 01:47:56;;;;;;;0.90;0.20;;;;;;;10.20;100.00;98734.00;5032676;28;20072;-80
2022/02/04 01:51:00;;;;;;;0.20;0.20;;;;;;;9.93;100.00;98726.28;5033279;28;20510;-79
2022/02/04 01:54:04;;;;;;;0.20;0.20;;;;;;;9.84;100.00;98730.03;5033396;28;20072;-79
2022/02/04 01:57:07;;;;;;;0.17;0.10;;;;;;;9.86;100.00;98737.88;5032166;28;20052;-80
2022/02/04 02:00:11;;;;;;;0.65;0.10;;;;;;;9.81;100.00;98741.41;5032201;28;20049;-80
2022/02/04 02:03:15;;;;;;;0.30;0.30;;;;;;;9.60;100.00;98748.34;5033034;28;20052;-80
2022/02/04 02:07:00;;;;;;;0.82;0.28;;;;;;;9.51;100.00;98745.75;5032204;28;20068;-79
2022/02/04 02:10:07;;;;;;;0.20;0.17;;;;;;;9.40;100.00;98745.69;5031973;28;20056;-79
2022/02/04 02:13:27;;;;;;;0.20;0.20;;;;;;;9.35;100.00;98733.28;5031963;28;20057;-79
2022/02/04 02:37:43;;;;;;;0.20;0.20;;;;;;;8.95;100.00;98728.66;5031531;28;20053;-79
2022/02/04 02:44:04;;;;;;;0.77;0.50;;;;;;;8.83;100.00;98710.38;5032086;28;20060;-78
2022/02/04 03:03:12;;;;;;;0.10;0.10;;;;;;;8.62;100.00;98725.56;5031938;28;20064;-79
2022/02/04 03:06:16;;;;;;;0.40;0.40;;;;;;;8.60;100.00;98730.84;5030851;28;20060;-79
2022/02/04 03:09:19;;;;;;;0.10;0.10;;;;;;;8.59;100.00;98737.66;5031826;28;20044;-80
2022/02/04 03:12:22;;;;;;;0.10;0.10;;;;;;;8.53;100.00;98750.72;5031748;28;20406;-80
2022/02/04 03:15:26;;;;;;;0.10;0.10;;;;;;;8.51;100.00;98749.69;5031787;28;20061;-79
2022/02/04 03:18:33;;;;;;;0.20;0.20;;;;;;;8.40;100.00;98750.31;5030753;28;20060;-79
2022/02/04 03:21:43;;;;;;;0.15;0.13;;;;;;;8.39;100.00;98762.66;5011745;28;20507;-80
2022/02/04 03:24:55;;;;;;;0.43;0.25;;;;;;;8.33;100.00;98761.84;5013364;28;20514;-79
2022/02/04 03:27:59;;;;;;;0.13;0.13;;;;;;;8.25;100.00;98761.47;5031674;28;20057;-79
2022/02/04 03:31:04;;;;;;;0.98;0.13;;;;;;;8.19;100.00;98762.63;5031387;28;20056;-80
2022/02/04 03:34:08;;;;;;;0.43;0.25;;;;;;;8.15;100.00;98762.84;5030424;28;20057;-79
2022/02/04 03:37:12;;;;;;;0.30;0.30;;;;;;;8.05;100.00;98769.03;5031565;28;20053;-79
2022/02/04 03:40:17;;;;;;;0.20;0.20;;;;;;;7.88;100.00;98770.81;5030852;28;20852;-80
2022/02/04 03:43:20;;;;;;;0.22;0.22;;;;;;;7.77;100.00;98767.88;5031363;28;20051;-80
2022/02/04 03:46:23;;;;;;;0.10;0.10;;;;;;;7.61;100.00;98767.16;5030329;28;20513;-80
2022/02/04 03:49:27;;;;;;;0.10;0.10;;;;;;;7.52;100.00;98767.28;5030480;28;20057;-79
2022/02/04 03:52:31;;;;;;;0.85;0.40;;;;;;;7.51;100.00;98765.00;5030461;28;20052;-80
2022/02/04 03:55:34;;;;;;;0.20;0.20;;;;;;;7.44;100.00;98771.69;5030431;28;20056;-79
2022/02/04 03:58:37;;;;;;;0.20;0.20;;;;;;;7.40;100.00;98779.44;5030191;28;20052;-80
2022/02/04 04:01:41;;;;;;;0.10;0.10;;;;;;;7.35;100.00;98780.09;5010870;28;20407;-79
2022/02/04 04:04:45;;;;;;;0.20;0.20;;;;;;;7.33;100.00;98793.69;5015732;28;20161;-80
2022/02/04 04:07:50;;;;;;;0.10;0.10;;;;;;;7.28;100.00;98791.56;5015611;28;20058;-79
2022/02/04 04:10:53;;;;;;;0.20;0.20;;;;;;;7.31;100.00;98798.16;5030199;28;20060;-79
2022/02/04 04:13:57;;;;;;;0.85;0.40;;;;;;;7.31;100.00;98800.94;5034166;28;20052;-79
2022/02/04 04:17:00;;;;;;;1.13;0.30;;;;;;;7.22;100.00;98801.78;5034380;28;20510;-79
2022/02/04 04:20:06;;;;;;;0.13;0.13;;;;;;;7.07;100.00;98803.81;5033969;28;20049;-79
2022/02/04 04:23:11;;;;;;;0.10;0.10;;;;;;;7.05;100.00;98799.97;5033472;28;20076;-79
2022/02/04 04:26:15;;;;;;;0.30;0.30;;;;;;;7.06;100.00;98807.81;5033866;28;20064;-79
2022/02/04 04:29:18;;;;;;;1.67;0.63;;;;;;;7.02;100.00;98807.22;5034562;28;20052;-79
2022/02/04 04:32:22;;;;;;;0.10;0.10;;;;;;;6.98;100.00;98812.19;5034026;28;20052;-79
2022/02/04 04:35:27;;;;;;;0.20;0.20;;;;;;;6.93;100.00;98809.34;5034027;28;20052;-79
2022/02/04 04:38:38;;;;;;;0.40;0.40;;;;;;;6.95;100.00;98813.16;5034639;28;20053;-80
2022/02/04 04:41:53;;;;;;;0.10;0.10;;;;;;;6.95;100.00;98807.63;5033679;28;20068;-80
2022/02/04 05:26:15;;;;;;;0.20;0.20;;;;;;;6.69;100.00;98856.44;5033564;28;19916;-79
2022/02/04 05:29:19;;;;;;;0.20;0.20;;;;;;;6.70;100.00;98861.50;5033588;28;20542;-79
2022/02/04 05:32:23;;;;;;;0.25;0.20;;;;;;;6.69;100.00;98867.50;5028803;28;20053;-79
2022/02/04 05:35:26;;;;;;;0.15;0.15;;;;;;;6.60;100.00;98862.81;5019343;28;20053;-79
2022/02/04 05:38:31;;;;;;;0.20;0.20;;;;;;;6.55;100.00;98866.22;5013366;28;20494;-78
2022/02/04 05:41:36;;;;;;;0.50;0.35;;;;;;;6.62;100.00;98862.34;5035940;28;20077;-79
2022/02/04 05:44:43;;;;;;;0.17;0.17;;;;;;;6.53;100.00;98854.09;5013061;28;20057;-79
2022/02/04 05:47:49;;;;;;;2.28;0.57;;;;;;;6.56;100.00;98853.16;5013644;28;20076;-79
2022/02/04 05:57:41;;;;;;;0.63;0.32;;;;;;;6.37;100.00;98846.22;5033416;28;20048;-79
2022/02/04 06:23:20;;;;;;;0.20;0.20;;;;;;;6.43;100.00;98827.75;5033068;28;20056;-79
2022/02/04 06:26:24;;;;;;;0.20;0.10;;;;;;;6.42;100.00;98832.50;5032447;28;20049;-80
2022/02/04 06:29:28;;;;;;;0.20;0.20;;;;;;;6.45;100.00;98837.13;5032487;28;20062;-79
2022/02/04 06:32:34;;;;;;;0.10;0.10;;;;;;;6.43;100.00;98849.88;5032479;28;20048;-79
2022/02/04 06:35:41;;;;;;;0.63;0.63;;;;;;;6.41;100.00;98849.59;5032344;28;20064;-79
2022/02/04 06:38:44;;;;;;;3.10;1.25;;;;;;;6.46;100.00;98859.97;5032656;28;20410;-79
2022/02/04 06:41:48;;;;;;;0.60;0.20;;;;;;;6.49;100.00;98847.97;5012326;28;20053;-79
2022/02/04 06:44:52;;;;;;;1.17;0.63;;;;;;;6.44;100.00;98838.34;5012967;28;20077;-79
2022/02/04 06:47:55;;;;;;;0.20;0.20;;;;;;;6.43;100.00;98838.81;5012592;28;20104;-79
2022/02/04 06:50:59;;;;;;;0.47;0.25;;;;;;;6.40;100.00;98842.50;5028731;28;20411;-80
2022/02/04 06:54:03;;;;;;;0.43;0.20;;;;;;;6.42;100.00;98853.88;5032056;28;20422;-79
2022/02/04 06:57:06;;;;;;;0.10;0.10;;;;;;;6.40;100.00;98850.81;5032252;28;20053;-79
2022/02/04 07:00:10;;;;;;;7.78;0.45;;;;;;;6.42;100.00;98837.28;5031328;28;20121;-80
2022/02/04 07:03:14;;;;;;;0.95;0.22;;;;;;;6.40;100.00;98845.28;5032032;28;20534;-80
2022/02/04 07:06:18;;;;;;;1.50;0.95;;;;;;;6.38;100.00;98850.53;5031916;28;20068;-80
2022/02/04 07:12:36;;;;;;;0.10;0.10;;;;;;;6.31;100.00;98864.69;5031887;28;20107;-79
2022/02/04 07:22:27;;;;;;;0.73;0.25;;;;;;;6.36;100.00;98883.41;5011674;28;20049;-79
2022/02/04 07:25:30;;;;;;;0.20;0.20;;;;;;;6.31;100.00;98892.34;5019729;28;20064;-79
2022/02/04 07:28:34;;;;;;;0.38;0.38;;;;;;;6.25;100.00;98883.16;5031403;28;20168;-80
2022/02/04 07:31:40;;;;;;;0.47;0.22;;;;;;;6.27;100.00;98877.94;5011870;28;20400;-80
2022/02/04 07:35:00;;;;;;;0.10;0.10;;;;;;;6.16;100.00;98885.97;5011784;28;20048;-79
2022/02/04 07:41:26;;;;;;;0.13;0.13;;;;;;;6.08;100.00;98886.34;5011339;28;20049;-80
2022/02/04 07:44:30;;;;;;;3.92;0.60;;;;;;;6.11;100.00;98890.91;5011494;28;20072;-79
2022/02/04 07:47:34;;;;;;;0.52;0.52;;;;;;;6.09;100.00;98887.84;5011892;28;20048;-78
2022/02/04 07:50:38;;;;;;;1.75;0.70;;;;;;;6.03;100.00;98898.03;5025403;28;20080;-79
2022/02/04 07:53:41;;;;;;;0.20;0.10;;;;;;;5.94;100.00;98906.34;5031527;28;20057;-79
2022/02/04 07:56:44;;;;;;;0.20;0.20;;;;;;;5.91;100.00;98912.06;5030599;28;20057;-79
2022/02/04 07:59:48;;;;;;;1.65;0.43;;;;;;;5.84;100.00;98910.41;5030547;28;20250;-83
2022/02/04 08:02:52;;;;;;;0.10;0.10;;;;;;;5.78;100.00;98923.25;5031496;28;20053;-80
2022/02/04 08:06:00;;;;;;;0.43;0.43;;;;;;;5.67;100.00;98934.06;5031149;28;20053;-79
2022/02/04 08:20:16;;;;;;;0.20;0.20;;;;;;;5.67;100.00;98942.34;5031313;28;20052;-78
2022/02/04 08:26:22;;;;;;;0.10;0.10;;;;;;;5.69;100.00;98956.47;5036425;28;20056;-79
2022/02/04 08:55:45;;;;;;;0.10;0.10;;;;;;;6.11;100.00;98973.06;5034817;28;20056;-79
2022/02/04 08:58:49;;;;;;;0.40;0.40;;;;;;;6.27;100.00;98972.69;5034758;28;20072;-79
2022/02/04 09:02:19;;;;;;;3.83;1.40;;;;;;;6.34;100.00;98975.13;5033395;28;20053;-78
2022/02/04 09:05:17;;;;;;;0.50;0.50;;;;;;;6.48;100.00;98987.50;5034474;28;20060;-79
2022/02/04 09:08:29;;;;;;;0.20;0.20;;;;;;;6.52;100.00;98985.34;5033550;28;20048;-79
2022/02/04 09:24:46;;;;;;;0.20;0.20;;;;;;;6.13;100.00;98997.50;5033521;28;20060;-78
2022/02/04 09:27:51;;;;;;;0.10;0.10;;;;;;;6.18;100.00;98996.84;5033811;28;20502;-78
2022/02/04 09:30:54;;;;;;;14.10;0.75;;;;;;;6.26;100.00;98989.75;5033700;28;20534;-79
2022/02/04 09:33:57;;;;;;;0.10;0.10;;;;;;;6.34;100.00;98993.72;5033572;28;20269;-78
2022/02/04 09:37:01;;;;;;;0.30;0.30;;;;;;;6.42;100.00;98989.38;5033369;28;20052;-79
2022/02/04 09:40:05;;;;;;;0.15;0.15;;;;;;;6.59;100.00;99002.34;5024684;28;20049;-79
2022/02/04 09:43:09;;;;;;;0.10;0.10;;;;;;;6.62;100.00;99001.41;5021173;28;20064;-79
2022/02/04 09:46:14;;;;;;;0.57;0.32;;;;;;;6.65;100.00;99007.97;5022035;28;20045;-79
2022/02/04 09:49:24;;;;;;;0.20;0.20;;;;;;;6.69;100.00;99009.34;5032617;28;20068;-79
2022/02/04 10:12:32;;;;;;;0.20;0.20;;;;;;;7.48;100.00;99026.34;5032314;28;20052;-79
2022/02/04 10:19:19;;;;;;;6.85;0.40;;;;;;;7.39;100.00;99029.16;5033127;28;20069;-79
2022/02/04 10:22:26;;;;;;;0.10;0.10;;;;;;;7.65;100.00;99030.19;5012158;28;20064;-79
2022/02/04 10:25:33;;;;;;;0.17;0.17;;;;;;;7.89;100.00;99038.44;5042817;28;20075;-79
2022/02/04 10:28:36;;;;;;;0.30;0.30;;;;;;;8.05;100.00;99029.66;5032765;28;20048;-79
2022/02/04 10:31:45;;;;;;;1.27;0.30;;;;;;;8.14;100.00;99037.88;5012785;28;20061;-79
2022/02/04 10:35:00;;;;;;;0.10;0.10;;;;;;;8.10;100.00;99048.41;5012772;28;20061;-79
2022/02/04 10:38:20;;;;;;;0.45;0.45;;;;;;;8.12;100.00;99060.50;5017422;28;20052;-80
2022/02/04 10:41:30;;;;;;;0.20;0.20;;;;;;;8.19;100.00;99062.13;5011975;28;20060;-80
2022/02/04 10:44:46;;;;;;;0.20;0.20;;;;;;;8.25;100.00;99065.78;5012368;28;20056;-82
2022/02/04 11:01:29;;;;;;;0.73;0.70;;;;;;;8.38;100.00;99091.28;5032230;28;20049;-81
2022/02/04 11:04:45;;;;;;;14.90;0.65;;;;;;;8.38;100.00;99094.03;5031267;28;20052;-82
2022/02/04 11:08:16;;;;;;;2.90;1.40;;;;;;;8.28;100.00;99098.13;5032167;28;20064;-81
2022/02/04 11:11:44;;;;;;;0.50;0.10;;;;;;;8.48;100.00;99111.34;5030599;28;20061;-82
2022/02/04 11:55:41;;;;;;;0.30;0.30;;;;;;;9.04;100.00;99114.50;5030827;28;20085;-80
2022/02/04 11:59:02;;;;;;;1.95;0.73;;;;;;;8.99;100.00;99115.19;5030991;28;20048;-80
2022/02/04 12:02:30;;;;;;;0.90;0.90;;;;;;;9.00;100.00;99105.63;5030516;28;20060;-81
2022/02/04 12:05:34;;;;;;;0.47;0.38;;;;;;;8.86;100.00;99092.53;5030415;28;20494;-81
2022/02/04 12:08:38;;;;;;;0.10;0.10;;;;;;;8.79;100.00;99095.69;5030992;28;20143;-80
2022/02/04 12:11:41;;;;;;;0.10;0.10;;;;;;;8.75;100.00;99078.47;5030079;28;20064;-80
2022/02/04 12:14:45;;;;;;;0.22;0.10;;;;;;;8.86;100.00;99086.19;5034837;28;20067;-80
2022/02/04 12:17:48;;;;;;;3.38;0.85;;;;;;;9.00;100.00;99079.84;5027847;28;20056;-80
2022/02/04 12:20:55;;;;;;;0.77;0.25;;;;;;;9.13;100.00;99072.72;5022852;28;20494;-79
2022/02/04 12:24:00;;;;;;;0.35;0.35;;;;;;;9.09;100.00;99079.72;5028377;28;20056;-80
2022/02/04 12:27:29;;;;;;;0.60;0.60;;;;;;;9.08;100.00;99078.97;5034221;28;20053;-79
2022/02/04 12:30:35;;;;;;;0.10;0.10;;;;;;;8.84;100.00;99097.78;5034281;28;20053;-84
2022/02/04 12:33:53;;;;;;;0.10;0.10;;;;;;;8.67;100.00;99099.56;5031178;28;20060;-81
2022/02/04 12:36:58;;;;;;;0.30;0.30;;;;;;;8.57;100.00;99114.78;5014748;28;20053;-79
2022/02/04 12:40:07;;;;;;;0.68;0.45;;;;;;;8.39;100.00;99121.28;5023712;28;20052;-80
2022/02/04 12:43:12;;;;;;;0.38;0.30;;;;;;;8.33;100.00;99116.91;5022935;28;20513;-82
2022/02/04 12:46:16;;;;;;;0.43;0.10;;;;;;;8.32;100.00;99115.34;5054371;28;20060;-79
2022/02/04 12:49:22;;;;;;;0.20;0.20;;;;;;;8.28;100.00;99136.97;5033075;28;20052;-82
2022/02/04 12:55:37;;;;;;;7.28;0.63;;;;;;;8.24;100.00;99103.09;5034065;28;20498;-80
2022/02/04 13:02:26;;;;;;;0.20;0.20;;;;;;;8.22;100.00;99117.44;5034368;28;20543;-79
2022/02/04 13:09:33;;;;;;;0.80;0.10;;;;;;;8.62;100.00;99122.41;5033955;28;20053;-81
2022/02/04 13:12:24;;;;;;;0.10;0.10;;;;;;;8.40;100.00;99149.81;5013677;28;20060;-78
2022/02/04 13:15:32;;;;;;;7.25;0.20;;;;;;;7.88;100.00;99147.78;5019750;28;20052;-79
2022/02/04 13:18:36;;;;;;;0.25;0.25;;;;;;;7.44;100.00;99165.03;5033115;28;20092;-81
2022/02/04 13:21:39;;;;;;;1.02;0.47;;;;;;;7.38;100.00;99163.38;5037801;28;20514;-81
2022/02/04 13:24:42;;;;;;;0.10;0.10;;;;;;;7.51;100.00;99170.19;5022183;28;20072;-79
2022/02/04 13:28:01;;;;;;;0.20;0.20;;;;;;;7.68;100.00;99161.47;5033364;28;20541;-80
2022/02/04 13:31:13;;;;;;;0.38;0.35;;;;;;;7.84;100.00;99175.66;5033176;28;20052;-79
2022/02/04 13:34:18;;;;;;;4.00;0.55;;;;;;;8.08;100.00;99167.31;5032063;28;20064;-80
2022/02/04 13:37:37;;;;;;;0.40;0.40;;;;;;;8.20;100.00;99180.16;5033396;28;20056;-82
2022/02/04 13:40:58;;;;;;;16.80;0.85;;;;;;;8.31;100.00;99172.88;5032055;28;20052;-80
2022/02/04 13:51:09;;;;;;;1.05;0.40;;;;;;;8.66;100.00;99192.41;5033339;28;20049;-80
2022/02/04 13:57:53;;;;;;;2.60;0.22;;;;;;;8.75;100.00;99203.38;5032900;28;20061;-79
2022/02/04 14:04:10;;;;;;;0.15;0.13;;;;;;;8.51;100.00;99199.19;5032662;28;20052;-79
2022/02/04 14:07:18;;;;;;;2.35;0.65;;;;;;;8.38;100.00;99210.56;5032884;28;20052;-79
2022/02/04 14:10:34;;;;;;;5.60;1.02;;;;;;;8.19;100.00;99218.22;5031710;28;20048;-79
2022/02/04 14:13:38;;;;;;;0.55;0.55;;;;;;;8.05;100.00;99202.34;5031093;28;20064;-79
2022/02/04 14:16:54;;;;;;;1.05;0.63;;;;;;;7.93;100.00;99199.78;5031759;28;20052;-79
2022/02/04 14:19:58;;;;;;;1.17;0.68;;;;;;;7.98;100.00;99201.91;5031413;28;20406;-79
2022/02/04 14:23:01;;;;;;;1.23;0.75;;;;;;;8.05;100.00;99196.00;5031845;28;20056;-79
2022/02/04 14:32:33;;;;;;;0.10;0.10;;;;;;;7.87;100.00;99218.31;5032536;28;20049;-79
2022/02/04 15:02:05;;;;;;;0.50;0.40;;;;;;;7.81;100.00;99259.03;5012122;28;20060;-79
2022/02/04 15:05:12;;;;;;;0.38;0.15;;;;;;;7.65;100.00;99257.41;5011620;28;20068;-79
2022/02/04 15:08:19;;;;;;;0.45;0.45;;;;;;;7.54;100.00;99257.94;5011864;28;20057;-79
2022/02/04 15:11:30;;;;;;;0.20;0.20;;;;;;;7.52;100.00;99254.09;5020295;28;20049;-79
2022/02/04 15:14:33;;;;;;;0.50;0.20;;;;;;;7.59;100.00;99254.53;5011386;28;20073;-79
2022/02/04 15:17:37;;;;;;;13.35;0.50;;;;;;;7.55;100.00;99256.69;5031872;28;20052;-78
2022/02/04 15:20:41;;;;;;;1.75;1.02;;;;;;;7.48;100.00;99262.56;5030539;28;20052;-77
2022/02/04 15:23:48;;;;;;;2.55;0.40;;;;;;;7.61;100.00;99265.91;5031521;28;20052;-78
2022/02/04 15:26:51;;;;;;;11.18;1.17;;;;;;;7.71;100.00;99260.31;5031109;28;20052;-79
2022/02/04 15:29:55;;;;;;;0.98;0.40;;;;;;;7.70;100.00;99258.78;5030924;28;20048;-79
2022/02/04 15:32:58;;;;;;;0.85;0.60;;;;;;;7.89;100.00;99257.41;5030784;28;20048;-79
2022/02/04 15:36:03;;;;;;;8.20;0.38;;;;;;;7.99;100.00;99267.97;5031225;28;20052;-79
2022/02/04 15:39:18;;;;;;;0.10;0.10;;;;;;;8.20;100.00;99280.78;5031686;28;20060;-79
2022/02/04 15:42:24;;;;;;;4.47;0.43;;;;;;;8.34;100.00;99276.53;5031184;28;20056;-77
2022/02/04 15:49:45;;;;;;;0.25;0.20;;;;;;;8.10;100.00;99275.78;5031370;28;20056;-77
2022/02/04 15:55:45;;;;;;;3.22;0.38;;;;;;;8.03;100.00;99299.09;5011780;28;20049;-80
2022/02/04 15:59:05;;;;;;;0.43;0.43;;;;;;;8.23;100.00;99307.56;5032825;28;20056;-79
2022/02/04 16:05:18;;;;;;;0.20;0.20;;;;;;;8.07;100.00;99312.75;5010847;28;20053;-79
2022/02/04 16:08:22;;;;;;;13.35;0.95;;;;;;;8.07;100.00;99310.00;5011255;28;20495;-79
2022/02/04 16:17:56;;;;;;;3.70;0.80;;;;;;;8.11;100.00;99330.00;5030259;28;20057;-78
2022/02/04 16:30:37;;;;;;;1.00;0.30;;;;;;;8.48;100.00;99349.97;5024164;28;20056;-78
2022/02/04 16:33:41;;;;;;;0.55;0.30;;;;;;;8.45;100.00;99346.13;5028950;28;20068;-78
2022/02/04 16:36:46;;;;;;;0.30;0.30;;;;;;;8.38;100.00;99352.06;5030755;28;20514;-79
2022/02/04 16:39:50;;;;;;;0.40;0.20;;;;;;;8.34;100.00;99357.00;5030059;28;20060;-78
2022/02/04 16:42:53;;;;;;;0.32;0.32;;;;;;;8.30;100.00;99357.19;5029317;28;20095;-77
2022/02/04 16:45:57;;;;;;;0.30;0.30;;;;;;;8.31;100.00;99357.94;5027875;28;20052;-78
2022/02/04 16:49:00;;;;;;;0.25;0.17;;;;;;;8.26;100.00;99355.81;5030149;28;20052;-78
2022/02/04 16:52:05;;;;;;;4.47;0.52;;;;;;;8.24;100.00;99363.81;5030413;28;20057;-77
2022/02/04 16:55:09;;;;;;;2.92;0.90;;;;;;;8.18;100.00;99366.47;5029384;28;20068;-77
2022/02/04 16:58:12;;;;;;;17.48;0.52;;;;;;;8.14;100.00;99376.22;5030219;28;20230;-78
2022/02/04 17:01:17;;;;;;;5.25;0.68;;;;;;;8.10;100.00;99386.72;5030112;28;20053;-77
2022/02/04 17:04:21;;;;;;;0.20;0.20;;;;;;;7.96;100.00;99392.94;5029559;28;20100;-79
2022/02/04 17:07:26;;;;;;;1.48;0.55;;;;;;;7.75;100.00;99388.41;5033909;28;20521;-82
2022/02/04 17:10:32;;;;;;;0.13;0.10;;;;;;;7.62;100.00;99403.19;5023116;28;20414;-78
2022/02/04 17:13:36;;;;;;;0.95;0.93;;;;;;;7.64;100.00;99409.03;5032564;28;20052;-82
2022/02/04 17:16:43;;;;;;;0.65;0.52;;;;;;;7.52;100.00;99421.09;5032856;28;20089;-78
2022/02/04 17:19:53;;;;;;;0.10;0.10;;;;;;;7.43;100.00;99418.34;5032353;28;20056;-80
2022/02/04 17:22:58;;;;;;;0.10;0.10;;;;;;;7.48;100.00;99417.72;5052884;28;20048;-81
2022/02/04 17:26:02;;;;;;;0.28;0.28;;;;;;;7.56;100.00;99430.00;5039359;28;20056;-79
2022/02/04 17:29:05;;;;;;;1.85;0.35;;;;;;;7.57;100.00;99434.34;5042286;28;20047;-79
2022/02/04 17:32:08;;;;;;;0.35;0.35;;;;;;;7.52;100.00;99442.47;5032730;28;20057;-79
2022/02/04 17:35:14;;;;;;;0.13;0.13;;;;;;;7.57;100.00;99434.34;5041041;28;20418;-81
2022/02/04 17:38:18;;;;;;;0.28;0.28;;;;;;;7.45;100.00;99443.56;5033645;28;20053;-79
2022/02/04 17:41:21;;;;;;;13.10;0.50;;;;;;;7.52;100.00;99440.50;5032680;28;20056;-79
2022/02/04 17:44:25;;;;;;;0.20;0.20;;;;;;;7.61;100.00;99451.56;5041556;28;20117;-79
2022/02/04 17:47:29;;;;;;;0.68;0.30;;;;;;;7.82;100.00;99463.66;5042649;28;20060;-86
2022/02/04 17:50:47;;;;;;;0.30;0.30;;;;;;;7.93;100.00;99457.63;5026865;28;20072;-85
2022/02/04 17:53:55;;;;;;;1.67;0.43;;;;;;;7.91;100.00;99463.63;5029710;28;20399;-82
2022/02/04 17:57:16;;;;;;;0.20;0.20;;;;;;;7.84;100.00;99460.44;5032085;28;20068;-81
2022/02/04 18:00:55;;;;;;;0.28;0.20;;;;;;;7.78;100.00;99459.50;5031802;28;20052;-78
2022/02/04 18:10:00;;;;;;;1.50;0.40;;;;;;;7.81;100.00;99464.13;5032288;28;20068;-78
2022/02/04 18:13:06;;;;;;;0.13;0.13;;;;;;;7.85;100.00;99465.50;5032639;28;20434;-79
2022/02/04 18:16:10;;;;;;;0.40;0.30;;;;;;;7.92;100.00;99478.28;5032713;28;20049;-78
2022/02/04 18:19:14;;;;;;;2.30;0.80;;;;;;;7.95;100.00;99491.22;5032732;28;20053;-78
2022/02/04 18:22:17;;;;;;;1.50;0.20;;;;;;;7.95;100.00;99494.00;5032779;28;20056;-78
2022/02/04 18:25:21;;;;;;;0.55;0.40;;;;;;;7.91;100.00;99502.44;5033591;28;20406;-78
2022/02/04 18:28:26;;;;;;;0.10;0.10;;;;;;;7.90;100.00;99505.69;5032398;28;20048;-78
2022/02/04 18:31:32;;;;;;;0.20;0.20;;;;;;;7.83;100.00;99517.09;5012675;28;20057;-78
2022/02/04 18:34:36;;;;;;;3.45;1.08;;;;;;;7.78;100.00;99517.72;5012523;28;20057;-79
2022/02/04 18:37:44;;;;;;;0.52;0.52;;;;;;;7.73;100.00;99523.91;5012791;28;20061;-78
2022/02/04 18:41:46;;;;;;;1.25;0.82;;;;;;;7.67;100.00;99525.75;5027428;28;20056;-78
2022/02/04 18:44:15;;;;;;;0.10;0.10;;;;;;;7.62;100.00;99527.91;5033525;28;20049;-79
2022/02/04 18:53:58;;;;;;;0.55;0.55;;;;;;;7.63;100.00;99548.06;5031970;28;20052;-77
2022/02/04 19:00:16;;;;;;;17.92;1.27;;;;;;;7.59;100.00;99553.78;5031536;28;20120;-76
2022/02/04 19:03:25;;;;;;;0.30;0.30;;;;;;;7.57;100.00;99567.34;5031825;28;20052;-78
2022/02/04 19:06:35;;;;;;;0.13;0.13;;;;;;;7.58;100.00;99570.84;5030699;28;20076;-78
2022/02/04 19:09:41;;;;;;;2.55;0.77;;;;;;;7.57;100.00;99578.41;5031899;28;20060;-79
2022/02/04 19:19:28;;;;;;;0.60;0.60;;;;;;;7.32;100.00;99584.22;5031679;28;20056;-77
2022/02/04 19:22:35;;;;;;;1.65;0.70;;;;;;;7.23;100.00;99578.72;5031503;28;20056;-77
2022/02/04 19:25:41;;;;;;;2.50;0.57;;;;;;;7.16;100.00;99584.53;5030670;28;20060;-78
2022/02/04 19:28:44;;;;;;;4.50;0.85;;;;;;;7.26;100.00;99590.84;5030577;28;20052;-79
2022/02/04 19:31:53;;;;;;;0.15;0.15;;;;;;;7.20;100.00;99576.84;5030541;28;20502;-79
2022/02/04 19:34:59;;;;;;;0.52;0.40;;;;;;;7.12;100.00;99583.91;5052793;28;20060;-78
2022/02/04 19:38:03;;;;;;;3.28;0.80;;;;;;;7.03;100.00;99594.19;5031039;28;20057;-78
2022/02/04 19:41:12;;;;;;;0.80;0.68;;;;;;;7.00;100.00;99595.88;5022334;28;20407;-79
2022/02/04 19:44:16;;;;;;;5.38;1.00;;;;;;;7.00;100.00;99606.94;5038067;28;20069;-77
2022/02/04 19:47:28;;;;;;;0.20;0.20;;;;;;;6.90;100.00;99608.16;5010737;28;20411;-78
2022/02/04 20:23:47;;;;;;;0.10;0.10;;;;;;;6.57;100.00;99670.72;5030508;28;20048;-79
2022/02/04 20:26:52;;;;;;;0.40;0.40;;;;;;;6.50;100.00;99670.97;5030239;28;20057;-78
2022/02/04 20:29:57;;;;;;;1.15;0.32;;;;;;;6.28;100.00;99684.06;5030037;28;20478;-78
2022/02/04 20:33:01;;;;;;;0.60;0.60;;;;;;;6.24;100.00;99691.72;5010681;28;20053;-77
2022/02/04 20:36:04;;;;;;;0.30;0.30;;;;;;;6.29;100.00;99696.66;5022153;28;20060;-77
2022/02/04 20:39:10;;;;;;;25.02;1.60;;;;;;;6.27;100.00;99699.09;5030448;28;20428;-77
2022/02/04 20:42:17;;;;;;;0.30;0.20;;;;;;;6.37;100.00;99706.22;5030505;28;20053;-78
2022/02/04 20:45:20;;;;;;;1.52;0.50;;;;;;;6.43;100.00;99712.75;5032223;28;20046;-77
2022/02/04 20:48:32;;;;;;;1.40;0.30;;;;;;;6.50;100.00;99716.00;5034106;28;20048;-77
2022/02/04 20:51:36;;;;;;;0.30;0.23;;;;;;;6.52;100.00;99721.13;5014223;28;20502;-77
2022/02/04 20:54:41;;;;;;;0.40;0.40;;;;;;;6.49;100.00;99727.53;5014224;28;20492;-77
2022/02/04 20:57:48;;;;;;;5.38;0.47;;;;;;;6.45;100.00;99733.22;5013613;28;20053;-78
2022/02/04 21:00:52;;;;;;;0.98;0.47;;;;;;;6.55;100.00;99731.25;5028647;28;20052;-78
2022/02/04 21:03:57;;;;;;;2.20;1.05;;;;;;;6.67;100.00;99733.19;5033893;28;20064;-78
2022/02/04 21:07:05;;;;;;;0.60;0.45;;;;;;;6.75;100.00;99751.06;5033906;28;20068;-77
2022/02/04 21:16:47;;;;;;;0.45;0.45;;;;;;;6.69;100.00;99745.34;5033677;28;20048;-78
2022/02/04 21:19:51;;;;;;;1.13;0.68;;;;;;;6.77;100.00;99759.69;5033668;28;20057;-77
2022/02/04 21:22:54;;;;;;;0.30;0.30;;;;;;;6.85;100.00;99755.44;5034072;28;20049;-77
2022/02/04 21:25:59;;;;;;;2.92;0.35;;;;;;;6.82;100.00;99767.41;5033708;28;20052;-77
2022/02/04 21:29:03;;;;;;;7.53;1.10;;;;;;;6.72;100.00;99763.03;5033502;28;20056;-77
2022/02/04 21:32:07;;;;;;;33.53;1.02;;;;;;;6.70;100.00;99762.72;5033547;28;20057;-78
2022/02/04 21:38:34;;;;;;;3.55;0.57;;;;;;;6.77;100.00;99781.84;5033576;28;20053;-78
2022/02/04 21:41:38;;;;;;;2.03;0.55;;;;;;;6.76;100.00;99781.06;5013508;28;20053;-78
2022/02/04 21:44:44;;;;;;;1.00;0.70;;;;;;;6.69;100.00;99789.59;5013293;28;20057;-78
2022/02/04 21:47:52;;;;;;;0.10;0.10;;;;;;;6.66;100.00;99786.97;5033164;28;20556;-78
2022/02/04 21:50:56;;;;;;;0.10;0.00;;;;;;;6.64;100.00;99786.66;5033242;28;20068;-76
2022/02/04 21:53:59;;;;;;;0.38;0.38;;;;;;;6.68;100.00;99784.53;5033122;28;20052;-77
2022/02/04 21:57:03;;;;;;;3.03;0.52;;;;;;;6.75;100.00;99789.81;5031972;28;20057;-82
2022/02/04 22:00:08;;;;;;;0.17;0.17;;;;;;;6.68;100.00;99781.75;5032492;28;20514;-78
2022/02/04 22:03:12;;;;;;;0.17;0.17;;;;;;;6.58;100.00;99792.00;5032756;28;20056;-80
2022/02/04 22:06:15;;;;;;;0.15;0.15;;;;;;;6.56;100.00;99799.22;5032307;28;20053;-78
2022/02/04 22:13:05;;;;;;;0.95;0.85;;;;;;;6.58;100.00;99796.78;5032984;28;20407;-82
2022/02/04 22:22:20;;;;;;;0.20;0.20;;;;;;;6.34;100.00;99815.00;5011516;28;20061;-80
2022/02/04 22:25:30;;;;;;;4.03;0.30;;;;;;;6.30;100.00;99815.13;5019159;28;20052;-79
2022/02/04 22:28:37;;;;;;;0.40;0.38;;;;;;;6.28;100.00;99817.56;5032781;28;20056;-80
2022/02/04 22:31:41;;;;;;;0.10;0.10;;;;;;;6.29;100.00;99834.91;5012217;28;20408;-79